Time;durP1;ratioP1;P1;durP2;ratioP2;P2;SDS_P1;SDS_P2;PMS_P1;PMS_P2;Temp;Humidity;BMP_temperature;BMP_pressure;BME280_temperature;BME280_humidity;BME280_pressure;Samples;Min_cycle;Max_cycle;Signal;HPM_P1;HPM_P2
2022/07/23 00:01:22;;;;;;;4.60;2.83;;;29.30;99.90;;;;;;5032530;28;20378;-49
2022/07/23 00:03:48;;;;;;;13.45;3.05;;;29.30;99.90;;;;;;5033047;28;20104;-50
2022/07/23 00:06:14;;;;;;;5.68;2.83;;;29.30;99.90;;;;;;5033043;28;20044;-50
2022/07/23 00:08:40;;;;;;;3.80;2.67;;;29.30;99.90;;;;;;5033121;28;20034;-50
2022/07/23 00:11:06;;;;;;;5.20;2.90;;;29.30;99.90;;;;;;5033062;28;20025;-49
2022/07/23 00:13:31;;;;;;;7.82;3.35;;;29.30;99.90;;;;;;5032842;28;20029;-50
2022/07/23 00:15:57;;;;;;;5.45;2.75;;;29.30;99.90;;;;;;5032833;28;20451;-50
2022/07/23 00:18:23;;;;;;;4.57;2.80;;;29.30;99.90;;;;;;5032779;28;20025;-50
2022/07/23 00:20:49;;;;;;;6.60;3.10;;;29.30;99.90;;;;;;5032776;28;20124;-50
2022/07/23 00:23:15;;;;;;;7.00;3.30;;;29.30;99.90;;;;;;5032753;28;20022;-49
2022/07/23 00:25:40;;;;;;;3.35;3.03;;;29.30;99.90;;;;;;5032765;28;20428;-50
2022/07/23 00:28:07;;;;;;;4.33;2.73;;;29.30;99.90;;;;;;5032704;28;20546;-50
2022/07/23 00:30:33;;;;;;;4.10;2.97;;;29.30;99.90;;;;;;5032556;28;20025;-50
2022/07/23 00:33:02;;;;;;;4.57;3.20;;;29.30;99.90;;;;;;5032553;28;20017;-50
2022/07/23 00:35:31;;;;;;;7.57;3.13;;;29.30;99.90;;;;;;5032519;28;20025;-50
2022/07/23 00:37:58;;;;;;;7.00;3.10;;;29.30;99.90;;;;;;5032486;28;20013;-49
2022/07/23 00:40:24;;;;;;;3.90;2.97;;;29.30;99.90;;;;;;5032462;28;20082;-50
2022/07/23 00:42:50;;;;;;;8.53;3.47;;;29.30;99.90;;;;;;5032453;28;20372;-50
2022/07/23 00:45:16;;;;;;;5.10;2.90;;;29.20;99.90;;;;;;5032142;28;20353;-49
2022/07/23 00:47:42;;;;;;;5.93;3.00;;;29.20;99.90;;;;;;5032342;28;20406;-49
2022/07/23 00:50:09;;;;;;;5.82;2.90;;;29.20;99.90;;;;;;5032266;28;20034;-49
2022/07/23 00:52:37;;;;;;;4.43;3.17;;;29.20;99.90;;;;;;5032248;28;20072;-50
2022/07/23 00:55:03;;;;;;;;;;;29.20;99.90;;;;;;5032508;28;20044;-49
2022/07/23 00:57:29;;;;;;;5.47;3.10;;;29.30;99.90;;;;;;5032109;28;19905;-50
2022/07/23 00:59:56;;;;;;;5.13;3.17;;;29.20;99.90;;;;;;5032433;28;20083;-49
2022/07/23 01:02:21;;;;;;;3.15;2.80;;;29.20;99.90;;;;;;5032032;28;20108;-49
2022/07/23 01:04:47;;;;;;;13.48;3.20;;;29.20;99.90;;;;;;5031934;28;20156;-57
2022/07/23 01:07:13;;;;;;;4.40;2.70;;;29.20;99.90;;;;;;5032099;28;20037;-49
2022/07/23 01:09:40;;;;;;;4.28;2.50;;;29.20;99.90;;;;;;5030690;28;20080;-49
2022/07/23 01:12:06;;;;;;;3.40;2.40;;;29.20;99.90;;;;;;5031653;28;20025;-50
2022/07/23 01:14:32;;;;;;;3.80;2.50;;;29.20;99.90;;;;;;5031792;28;20034;-50
2022/07/23 01:16:58;;;;;;;2.67;2.42;;;29.20;99.90;;;;;;5031736;28;20540;-50
2022/07/23 01:19:23;;;;;;;8.65;2.45;;;29.20;99.90;;;;;;5031689;28;20472;-49
2022/07/23 01:21:51;;;;;;;4.45;2.47;;;29.20;99.90;;;;;;5031828;28;20024;-49
2022/07/23 01:24:21;;;;;;;2.72;2.15;;;29.20;99.90;;;;;;5031520;28;20032;-49
2022/07/23 01:26:47;;;;;;;5.03;2.40;;;29.20;99.90;;;;;;5031510;28;20045;-49
2022/07/23 01:29:14;;;;;;;4.72;2.75;;;29.20;99.90;;;;;;5030466;28;20026;-54
2022/07/23 01:31:43;;;;;;;3.87;2.23;;;29.20;99.90;;;;;;5031534;28;20056;-49
2022/07/23 01:34:09;;;;;;;4.85;2.42;;;29.20;99.90;;;;;;5031455;28;20025;-50
2022/07/23 01:36:37;;;;;;;3.45;2.45;;;29.20;99.90;;;;;;5031542;28;20017;-50
2022/07/23 01:39:04;;;;;;;3.45;2.58;;;29.10;99.90;;;;;;5031458;28;20013;-49
2022/07/23 01:41:30;;;;;;;4.60;2.60;;;29.10;99.90;;;;;;5031421;28;20076;-49
2022/07/23 01:43:56;;;;;;;4.30;2.55;;;29.20;99.90;;;;;;5030208;28;20076;-50
2022/07/23 01:46:22;;;;;;;4.72;2.30;;;29.20;99.90;;;;;;5031230;28;20040;-49
2022/07/23 01:48:48;;;;;;;4.47;2.80;;;29.20;99.90;;;;;;5031239;28;20040;-49
2022/07/23 01:51:14;;;;;;;2.90;2.53;;;29.20;99.90;;;;;;5031418;28;20381;-49
2022/07/23 01:53:40;;;;;;;5.13;3.58;;;29.20;99.90;;;;;;5031195;28;20030;-49
2022/07/23 01:56:06;;;;;;;2.85;2.10;;;29.10;99.90;;;;;;5031344;28;20078;-49
2022/07/23 01:58:32;;;;;;;5.38;2.65;;;29.10;99.90;;;;;;5031128;28;20041;-49
2022/07/23 02:00:57;;;;;;;3.47;2.38;;;29.20;99.90;;;;;;5031654;28;20111;-50
2022/07/23 02:03:24;;;;;;;2.42;2.10;;;29.20;99.90;;;;;;5031122;28;20040;-49
2022/07/23 02:05:50;;;;;;;4.30;2.40;;;29.20;99.90;;;;;;5031226;28;20032;-49
2022/07/23 02:08:17;;;;;;;4.88;2.35;;;29.20;99.90;;;;;;5031144;28;20037;-50
2022/07/23 02:10:43;;;;;;;2.10;1.90;;;29.20;99.90;;;;;;5031198;28;20051;-50
2022/07/23 02:13:08;;;;;;;3.70;2.55;;;29.10;99.90;;;;;;5031214;28;20275;-50
2022/07/23 02:15:34;;;;;;;3.17;2.47;;;29.20;99.90;;;;;;5031106;28;20500;-49
2022/07/23 02:18:01;;;;;;;6.88;2.65;;;29.20;99.90;;;;;;5031013;28;20030;-50
2022/07/23 02:20:26;;;;;;;2.85;2.35;;;29.20;99.90;;;;;;5029901;28;20040;-50
2022/07/23 02:22:52;;;;;;;2.78;2.03;;;29.10;99.90;;;;;;5029641;28;20030;-50
2022/07/23 02:25:18;;;;;;;4.95;2.17;;;29.10;99.90;;;;;;5034601;28;20029;-51
2022/07/23 02:27:44;;;;;;;6.25;2.97;;;29.10;99.90;;;;;;5034806;28;20048;-50
2022/07/23 02:30:10;;;;;;;3.47;1.92;;;29.10;99.90;;;;;;5034731;28;20172;-51
2022/07/23 02:32:36;;;;;;;2.42;2.20;;;29.10;99.90;;;;;;5034864;28;20392;-50
2022/07/23 02:35:03;;;;;;;4.63;2.40;;;29.10;99.90;;;;;;5034766;28;20511;-50
2022/07/23 02:37:29;;;;;;;2.78;2.20;;;29.10;99.90;;;;;;5034805;28;20152;-50
2022/07/23 02:39:55;;;;;;;7.72;2.72;;;29.10;99.90;;;;;;5034698;28;20117;-50
2022/07/23 02:42:23;;;;;;;2.75;2.30;;;29.10;99.90;;;;;;5034672;28;20026;-50
2022/07/23 02:44:50;;;;;;;4.28;2.40;;;29.10;99.90;;;;;;5034794;28;20049;-50
2022/07/23 02:47:15;;;;;;;3.30;3.00;;;29.10;99.90;;;;;;5034708;28;20142;-50
2022/07/23 02:49:41;;;;;;;2.50;2.30;;;29.10;99.90;;;;;;5034462;28;20065;-50
2022/07/23 02:52:07;;;;;;;4.13;2.40;;;29.10;99.90;;;;;;5034548;28;20022;-49
2022/07/23 02:54:33;;;;;;;3.60;2.28;;;29.10;99.90;;;;;;5034330;28;20483;-50
2022/07/23 02:56:59;;;;;;;2.70;2.50;;;29.10;99.90;;;;;;5034380;28;20030;-49
2022/07/23 02:59:24;;;;;;;2.28;2.10;;;29.10;99.90;;;;;;5034805;28;20017;-49
2022/07/23 03:01:50;;;;;;;5.65;2.50;;;29.10;99.90;;;;;;5034309;28;20042;-49
2022/07/23 03:04:16;;;;;;;4.38;2.00;;;29.10;99.90;;;;;;5034057;28;20460;-49
2022/07/23 03:06:42;;;;;;;2.72;2.42;;;29.10;99.90;;;;;;5034163;28;20037;-49
2022/07/23 03:09:07;;;;;;;3.45;2.22;;;29.10;99.90;;;;;;5033940;28;20037;-49
2022/07/23 03:11:33;;;;;;;4.60;2.70;;;29.00;99.90;;;;;;5034136;28;20026;-49
2022/07/23 03:13:59;;;;;;;3.80;2.40;;;29.10;99.90;;;;;;5034051;28;20432;-49
2022/07/23 03:16:24;;;;;;;2.30;2.17;;;29.10;99.90;;;;;;5032780;28;20025;-49
2022/07/23 03:18:50;;;;;;;6.50;2.83;;;29.10;99.90;;;;;;5034157;28;20079;-49
2022/07/23 03:21:16;;;;;;;3.17;2.88;;;29.00;99.90;;;;;;5034046;28;20029;-49
2022/07/23 03:23:42;;;;;;;3.92;3.00;;;29.00;99.90;;;;;;5033936;28;20095;-49
2022/07/23 03:26:08;;;;;;;3.42;2.58;;;29.00;99.90;;;;;;5033787;28;20100;-49
2022/07/23 03:28:33;;;;;;;3.35;2.45;;;29.00;99.90;;;;;;5033812;28;20063;-49
2022/07/23 03:30:59;;;;;;;4.43;3.55;;;29.00;99.90;;;;;;5033911;28;20052;-49
2022/07/23 03:33:25;;;;;;;5.60;4.15;;;29.00;99.90;;;;;;5033766;28;20033;-50
2022/07/23 03:35:50;;;;;;;6.47;3.47;;;28.90;99.90;;;;;;5033894;28;20048;-49
2022/07/23 03:38:16;;;;;;;4.95;2.67;;;28.90;99.90;;;;;;5033695;28;20049;-49
2022/07/23 03:40:42;;;;;;;4.15;3.15;;;28.90;99.90;;;;;;5033549;28;20108;-50
2022/07/23 03:43:08;;;;;;;3.10;2.63;;;28.90;99.90;;;;;;5033675;28;20032;-50
2022/07/23 03:45:34;;;;;;;3.00;2.60;;;28.90;99.90;;;;;;5033430;28;20030;-50
2022/07/23 03:47:59;;;;;;;3.80;2.67;;;28.90;99.90;;;;;;5033383;28;20122;-50
2022/07/23 03:50:25;;;;;;;4.43;2.80;;;28.90;99.90;;;;;;5033372;28;20093;-50
2022/07/23 03:52:51;;;;;;;3.78;2.47;;;28.90;99.90;;;;;;5033490;28;20370;-51
2022/07/23 03:55:17;;;;;;;4.30;2.40;;;28.90;99.90;;;;;;5033248;28;20025;-50
2022/07/23 03:57:43;;;;;;;3.10;2.22;;;28.90;99.90;;;;;;5033056;28;20075;-50
2022/07/23 04:00:11;;;;;;;3.55;2.30;;;28.90;99.90;;;;;;5033392;28;20045;-49
2022/07/23 04:02:37;;;;;;;;;;;28.90;99.90;;;;;;5033957;28;20033;-50
2022/07/23 04:05:04;;;;;;;5.37;2.33;;;28.90;99.90;;;;;;5032863;28;19905;-50
2022/07/23 04:07:30;;;;;;;3.83;2.47;;;28.90;99.90;;;;;;5032759;28;20037;-50
2022/07/23 04:09:56;;;;;;;3.10;2.42;;;28.90;99.90;;;;;;5032904;28;20045;-50
2022/07/23 04:12:22;;;;;;;2.60;2.40;;;28.90;99.90;;;;;;5032995;28;20022;-49
2022/07/23 04:14:48;;;;;;;4.97;2.78;;;28.80;99.90;;;;;;5032774;28;20441;-50
2022/07/23 04:17:14;;;;;;;3.42;2.53;;;28.80;99.90;;;;;;5031444;28;20065;-50
2022/07/23 04:19:41;;;;;;;3.33;2.70;;;28.80;99.90;;;;;;5031257;28;20029;-49
2022/07/23 04:22:07;;;;;;;3.88;2.92;;;28.90;99.90;;;;;;5032502;28;20024;-49
2022/07/23 04:24:33;;;;;;;4.25;2.63;;;28.90;99.90;;;;;;5032508;28;20048;-49
2022/07/23 04:26:59;;;;;;;4.00;2.53;;;28.80;99.90;;;;;;5032304;28;20457;-50
2022/07/23 04:29:25;;;;;;;4.82;2.58;;;28.80;99.90;;;;;;5032622;28;20511;-50
2022/07/23 04:31:51;;;;;;;7.50;2.92;;;28.80;99.90;;;;;;5032471;28;20159;-50
2022/07/23 04:34:17;;;;;;;4.10;2.95;;;28.80;99.90;;;;;;5032383;28;20091;-50
2022/07/23 04:36:43;;;;;;;6.07;2.63;;;28.80;99.90;;;;;;5032086;28;20022;-48
2022/07/23 04:39:09;;;;;;;3.13;2.72;;;28.70;99.90;;;;;;5032406;28;20045;-50
2022/07/23 04:41:35;;;;;;;3.92;2.70;;;28.70;99.90;;;;;;5032194;28;20033;-50
2022/07/23 04:44:02;;;;;;;5.72;2.65;;;28.70;99.90;;;;;;5030980;28;20029;-49
2022/07/23 04:46:28;;;;;;;6.53;3.40;;;28.70;99.90;;;;;;5031910;28;20029;-50
2022/07/23 04:48:54;;;;;;;4.72;2.75;;;28.70;99.90;;;;;;5032269;28;20374;-49
2022/07/23 04:51:20;;;;;;;9.73;3.45;;;28.70;99.90;;;;;;5032268;28;20128;-50
2022/07/23 04:53:45;;;;;;;4.25;3.00;;;28.70;99.90;;;;;;5032014;28;20524;-49
2022/07/23 04:56:11;;;;;;;5.88;3.28;;;28.70;99.90;;;;;;5031955;28;20018;-50
2022/07/23 04:58:37;;;;;;;10.98;3.85;;;28.80;99.90;;;;;;5031898;28;20031;-50
2022/07/23 05:01:03;;;;;;;18.27;4.82;;;28.80;99.90;;;;;;5031812;28;20053;-50
2022/07/23 05:03:29;;;;;;;14.02;3.30;;;28.80;99.90;;;;;;5032004;28;20026;-49
2022/07/23 05:05:55;;;;;;;9.75;3.70;;;28.80;99.90;;;;;;5031947;28;20103;-50
2022/07/23 05:08:21;;;;;;;4.15;2.78;;;28.80;99.90;;;;;;5031809;28;20448;-49
2022/07/23 05:10:47;;;;;;;4.25;3.28;;;28.70;99.90;;;;;;5031761;28;20034;-50
2022/07/23 05:13:15;;;;;;;7.75;3.20;;;28.70;99.90;;;;;;5030668;28;20079;-50
2022/07/23 05:15:41;;;;;;;5.93;2.95;;;28.70;99.90;;;;;;5031735;28;20022;-49
2022/07/23 05:18:07;;;;;;;10.68;2.97;;;28.70;99.90;;;;;;5031729;28;20385;-50
2022/07/23 05:20:33;;;;;;;3.50;2.40;;;28.70;99.90;;;;;;5031615;28;20029;-50
2022/07/23 05:22:59;;;;;;;4.60;2.35;;;28.70;99.90;;;;;;5031771;28;20025;-49
2022/07/23 05:25:24;;;;;;;4.88;2.50;;;28.70;99.90;;;;;;5031558;28;20022;-49
2022/07/23 05:27:50;;;;;;;4.60;2.45;;;28.70;99.90;;;;;;5031410;28;20112;-50
2022/07/23 05:30:16;;;;;;;8.43;3.20;;;28.70;99.90;;;;;;5031318;28;20056;-49
2022/07/23 05:32:42;;;;;;;8.65;3.05;;;28.70;99.90;;;;;;5030135;28;20038;-50
2022/07/23 05:35:08;;;;;;;6.78;3.25;;;28.70;99.90;;;;;;5031411;28;20021;-49
2022/07/23 05:37:34;;;;;;;14.57;3.42;;;28.60;99.90;;;;;;5029906;28;20075;-49
2022/07/23 05:40:02;;;;;;;9.38;3.83;;;28.60;99.90;;;;;;5031454;28;20029;-49
2022/07/23 05:42:28;;;;;;;7.05;3.45;;;28.60;99.90;;;;;;5031632;28;20381;-49
2022/07/23 05:44:54;;;;;;;10.65;3.47;;;28.60;99.90;;;;;;5031227;28;20025;-50
2022/07/23 05:47:20;;;;;;;11.10;3.80;;;28.60;99.90;;;;;;5031106;28;20037;-49
2022/07/23 05:49:45;;;;;;;11.93;3.92;;;28.60;99.90;;;;;;5031164;28;20488;-49
2022/07/23 05:52:11;;;;;;;8.40;3.72;;;28.60;99.90;;;;;;5031095;28;20434;-49
2022/07/23 05:54:37;;;;;;;15.95;3.72;;;28.60;99.90;;;;;;5031129;28;20075;-49
2022/07/23 05:57:03;;;;;;;7.47;3.65;;;28.60;99.90;;;;;;5031231;28;20476;-50
2022/07/23 05:59:30;;;;;;;12.45;4.88;;;28.60;99.90;;;;;;5033314;28;20028;-49
2022/07/23 06:01:56;;;;;;;7.85;3.30;;;28.60;99.90;;;;;;5035056;28;20049;-49
2022/07/23 06:04:21;;;;;;;10.52;4.22;;;28.60;99.90;;;;;;5035037;28;20022;-49
2022/07/23 06:06:47;;;;;;;10.23;3.80;;;28.60;99.90;;;;;;5035006;28;20021;-49
2022/07/23 06:09:13;;;;;;;8.57;3.38;;;28.60;99.90;;;;;;5034846;28;20037;-49
2022/07/23 06:11:40;;;;;;;12.63;4.22;;;28.60;99.90;;;;;;5035244;28;20022;-49
2022/07/23 06:14:06;;;;;;;7.63;3.87;;;28.60;99.90;;;;;;5035097;28;20029;-49
2022/07/23 06:16:31;;;;;;;9.38;4.18;;;28.60;99.90;;;;;;5035193;28;20023;-49
2022/07/23 06:18:57;;;;;;;8.57;3.65;;;28.60;99.90;;;;;;5034832;28;20499;-48
2022/07/23 06:21:23;;;;;;;7.00;4.05;;;28.60;99.90;;;;;;5034849;28;20079;-49
2022/07/23 06:23:49;;;;;;;12.30;4.55;;;28.60;99.90;;;;;;5034786;28;20025;-48
2022/07/23 06:26:15;;;;;;;8.43;4.32;;;28.60;99.90;;;;;;5034995;28;20105;-49
2022/07/23 06:28:40;;;;;;;12.82;4.10;;;28.60;99.90;;;;;;5034765;28;20041;-49
2022/07/23 06:31:06;;;;;;;5.88;4.78;;;28.60;99.90;;;;;;5034780;28;20151;-49
2022/07/23 06:33:33;;;;;;;8.90;4.53;;;28.60;99.90;;;;;;5034825;28;20433;-49
2022/07/23 06:35:59;;;;;;;8.07;4.10;;;28.60;99.90;;;;;;5034596;28;20526;-49
2022/07/23 06:38:25;;;;;;;12.27;4.60;;;28.60;99.90;;;;;;5034698;28;20029;-48
2022/07/23 06:40:51;;;;;;;5.63;4.60;;;28.60;99.90;;;;;;5033225;28;20132;-49
2022/07/23 06:43:16;;;;;;;10.93;4.30;;;28.60;99.90;;;;;;5034390;28;20026;-49
2022/07/23 06:45:42;;;;;;;10.30;4.13;;;28.60;99.90;;;;;;5034366;28;20032;-49
2022/07/23 06:48:08;;;;;;;8.05;3.30;;;28.60;99.90;;;;;;5034322;28;20092;-49
2022/07/23 06:50:34;;;;;;;6.75;3.33;;;28.60;99.90;;;;;;5034576;28;20508;-48
2022/07/23 06:53:00;;;;;;;7.97;3.50;;;28.70;99.90;;;;;;5034197;28;20037;-49
2022/07/23 06:55:26;;;;;;;6.18;3.15;;;28.70;99.90;;;;;;5034216;28;20079;-49
2022/07/23 06:57:52;;;;;;;3.00;2.80;;;28.70;99.90;;;;;;5034274;28;20021;-49
2022/07/23 07:00:17;;;;;;;2.97;2.45;;;28.70;99.90;;;;;;5032617;28;20057;-49
2022/07/23 07:02:43;;;;;;;3.85;2.35;;;28.70;99.90;;;;;;5034248;28;20034;-51
2022/07/23 07:05:09;;;;;;;4.25;2.72;;;28.70;99.90;;;;;;5034192;28;20022;-49
2022/07/23 07:07:35;;;;;;;3.25;2.75;;;28.70;99.90;;;;;;5016395;28;20029;-49
2022/07/23 07:10:02;;;;;;;6.30;3.50;;;28.70;99.90;;;;;;5033473;28;20044;-49
2022/07/23 07:12:29;;;;;;;12.57;4.13;;;28.70;99.90;;;;;;5033918;28;20030;-49
2022/07/23 07:14:54;;;;;;;8.85;3.70;;;28.70;99.90;;;;;;5033738;28;20036;-49
2022/07/23 07:17:20;;;;;;;6.15;3.83;;;28.80;99.90;;;;;;5033768;28;20025;-49
2022/07/23 07:19:46;;;;;;;7.95;3.35;;;28.80;99.90;;;;;;5033748;28;20017;-49
2022/07/23 07:22:11;;;;;;;5.25;3.53;;;28.80;99.90;;;;;;5033722;28;20021;-49
2022/07/23 07:24:37;;;;;;;9.15;3.72;;;28.80;99.90;;;;;;5033954;28;20022;-49
2022/07/23 07:27:03;;;;;;;7.40;3.92;;;28.90;99.90;;;;;;5033786;28;20033;-49
2022/07/23 07:29:29;;;;;;;4.75;3.17;;;28.90;99.90;;;;;;5033696;28;20029;-49
2022/07/23 07:31:55;;;;;;;16.15;4.07;;;28.90;99.90;;;;;;5033461;28;20531;-50
2022/07/23 07:34:20;;;;;;;10.93;4.32;;;28.90;99.90;;;;;;5033448;28;20026;-50
2022/07/23 07:36:46;;;;;;;7.35;4.85;;;28.80;99.90;;;;;;5032300;28;20033;-50
2022/07/23 07:39:12;;;;;;;6.88;3.88;;;28.90;99.90;;;;;;5033628;28;20108;-50
2022/07/23 07:41:38;;;;;;;11.07;4.40;;;28.90;99.90;;;;;;5033716;28;20037;-49
2022/07/23 07:44:04;;;;;;;12.25;4.32;;;28.90;99.90;;;;;;5033466;28;20498;-50
2022/07/23 07:46:30;;;;;;;4.85;3.78;;;28.90;99.90;;;;;;5033378;28;20569;-50
2022/07/23 07:48:56;;;;;;;7.25;4.07;;;28.90;99.90;;;;;;5033056;28;20116;-50
2022/07/23 07:51:22;;;;;;;6.15;3.80;;;28.90;99.90;;;;;;5033190;28;20100;-50
2022/07/23 07:53:47;;;;;;;6.13;3.78;;;28.90;99.90;;;;;;5032979;28;20527;-50
2022/07/23 07:56:13;;;;;;;6.05;3.33;;;28.90;99.90;;;;;;5032974;28;20021;-50
2022/07/23 07:58:39;;;;;;;6.40;3.50;;;28.90;99.90;;;;;;5033402;28;20025;-50
2022/07/23 08:01:05;;;;;;;8.52;3.78;;;28.90;99.90;;;;;;5032872;28;20049;-50
2022/07/23 08:03:31;;;;;;;19.98;4.88;;;29.00;99.90;;;;;;5033054;28;20375;-50
2022/07/23 08:05:57;;;;;;;7.63;3.60;;;29.00;99.90;;;;;;5033054;28;20018;-50
2022/07/23 08:08:22;;;;;;;7.30;3.75;;;28.90;99.90;;;;;;5032672;28;20034;-51
2022/07/23 08:10:48;;;;;;;4.35;3.25;;;29.00;99.90;;;;;;5032766;28;20101;-50
2022/07/23 08:13:15;;;;;;;6.10;3.33;;;29.00;99.90;;;;;;5032847;28;20053;-50
2022/07/23 08:15:41;;;;;;;3.35;2.58;;;28.90;99.90;;;;;;5033004;28;20102;-50
2022/07/23 08:18:07;;;;;;;4.60;3.30;;;28.90;99.90;;;;;;5032748;28;20108;-50
2022/07/23 08:20:33;;;;;;;4.55;2.95;;;28.90;99.90;;;;;;5032527;28;20452;-50
2022/07/23 08:23:04;;;;;;;4.70;2.67;;;28.90;99.90;;;;;;5031934;28;20037;-50
2022/07/23 08:25:33;;;;;;;4.15;2.78;;;28.90;99.90;;;;;;5032378;28;20530;-50
2022/07/23 08:28:00;;;;;;;3.97;2.63;;;28.90;99.90;;;;;;5032403;28;20040;-51
2022/07/23 08:30:30;;;;;;;6.05;3.15;;;28.90;99.90;;;;;;5031066;28;20044;-50
2022/07/23 08:33:01;;;;;;;5.40;2.85;;;28.90;99.90;;;;;;5032286;28;20025;-51
2022/07/23 08:35:34;;;;;;;6.60;2.95;;;28.90;99.90;;;;;;5032224;28;20025;-50
2022/07/23 08:38:02;;;;;;;4.47;2.50;;;28.90;99.90;;;;;;5032253;28;20599;-50
2022/07/23 08:40:30;;;;;;;3.55;2.10;;;28.90;99.90;;;;;;5030807;28;20056;-50
2022/07/23 08:42:56;;;;;;;3.88;2.30;;;28.90;99.90;;;;;;5032126;28;20048;-50
2022/07/23 08:45:24;;;;;;;5.50;3.03;;;28.90;99.90;;;;;;5031973;28;20029;-49
2022/07/23 08:47:55;;;;;;;5.55;2.60;;;28.90;99.90;;;;;;5032028;28;20495;-49
2022/07/23 08:50:23;;;;;;;4.82;3.03;;;28.90;99.90;;;;;;5031967;28;20033;-50
2022/07/23 08:52:49;;;;;;;;;;;29.00;99.90;;;;;;5032194;28;20025;-50
2022/07/23 08:55:17;;;;;;;7.00;2.88;;;28.90;99.90;;;;;;5032053;28;19959;-50
2022/07/23 08:57:43;;;;;;;5.70;3.08;;;29.00;99.90;;;;;;5031990;28;20114;-50
2022/07/23 09:00:10;;;;;;;4.07;3.00;;;28.90;99.90;;;;;;5031543;28;20034;-49
2022/07/23 09:02:41;;;;;;;3.38;2.25;;;28.90;99.90;;;;;;5031981;28;20034;-50
2022/07/23 09:05:07;;;;;;;4.43;2.95;;;29.00;99.90;;;;;;5031793;28;20026;-50
2022/07/23 09:07:33;;;;;;;3.97;2.92;;;29.00;99.90;;;;;;5031456;28;20046;-50
2022/07/23 09:10:09;;;;;;;3.20;2.88;;;29.00;99.90;;;;;;5031551;28;20069;-50
2022/07/23 09:12:35;;;;;;;7.57;3.13;;;29.10;99.90;;;;;;5031764;28;20454;-50
2022/07/23 09:15:07;;;;;;;5.40;2.08;;;29.10;99.90;;;;;;5031666;28;20036;-49
2022/07/23 09:17:41;;;;;;;3.70;2.50;;;29.10;99.90;;;;;;5031396;28;20029;-50
2022/07/23 09:20:17;;;;;;;4.53;2.45;;;29.10;99.90;;;;;;5031551;28;20022;-50
2022/07/23 09:22:47;;;;;;;6.03;2.72;;;29.10;99.90;;;;;;5031562;28;20033;-50
2022/07/23 09:25:14;;;;;;;5.20;3.08;;;29.10;99.90;;;;;;5031674;28;20048;-49
2022/07/23 09:27:54;;;;;;;5.47;2.40;;;29.20;99.90;;;;;;5031299;28;20490;-50
2022/07/23 09:30:29;;;;;;;5.70;2.55;;;29.20;99.90;;;;;;5031233;28;20555;-49
2022/07/23 09:33:20;;;;;;;4.93;2.88;;;29.30;99.90;;;;;;5031062;28;20392;-50
2022/07/23 09:35:52;;;;;;;3.10;2.33;;;29.30;99.90;;;;;;5031402;28;20354;-50
2022/07/23 09:38:20;;;;;;;5.10;2.58;;;29.30;99.90;;;;;;5031124;28;20045;-50
2022/07/23 09:41:04;;;;;;;4.22;2.80;;;29.30;99.90;;;;;;5031337;28;20029;-50
2022/07/23 09:43:30;;;;;;;4.07;2.72;;;29.30;99.90;;;;;;5031187;28;20060;-50
2022/07/23 09:46:19;;;;;;;3.45;2.70;;;29.30;99.90;;;;;;5031056;28;20382;-50
2022/07/23 09:48:45;;;;;;;2.78;2.22;;;29.30;99.90;;;;;;5031161;28;20041;-50
2022/07/23 09:51:11;;;;;;;4.43;2.72;;;29.40;99.90;;;;;;5031140;28;20072;-50
2022/07/23 09:53:37;;;;;;;4.65;2.97;;;29.40;99.90;;;;;;5031111;28;20033;-50
2022/07/23 09:56:03;;;;;;;3.47;3.03;;;29.40;99.90;;;;;;5031143;28;20068;-50
2022/07/23 09:58:30;;;;;;;4.72;2.55;;;29.40;99.90;;;;;;5031118;28;20048;-50
2022/07/23 10:00:57;;;;;;;2.78;2.50;;;29.50;99.90;;;;;;5030937;28;20041;-49
2022/07/23 10:03:23;;;;;;;4.72;3.28;;;29.50;99.90;;;;;;5031125;28;20060;-50
2022/07/23 10:05:50;;;;;;;3.53;2.63;;;29.50;99.90;;;;;;5031021;28;20457;-50
2022/07/23 10:08:18;;;;;;;4.63;2.50;;;29.50;99.90;;;;;;5031130;28;20112;-50
2022/07/23 10:10:46;;;;;;;3.72;2.50;;;29.50;99.90;;;;;;5031140;28;20080;-49
2022/07/23 10:15:58;;;;;;;6.18;3.50;;;29.50;99.90;;;;;;5031039;28;20456;-49
2022/07/23 10:18:24;;;;;;;5.05;2.65;;;29.50;99.90;;;;;;5030698;28;20033;-49
2022/07/23 10:20:50;;;;;;;5.40;2.90;;;29.50;99.90;;;;;;5030816;28;20505;-49
2022/07/23 10:23:35;;;;;;;7.35;2.80;;;29.60;99.90;;;;;;5031014;28;20392;-49
2022/07/23 10:26:10;;;;;;;3.10;2.75;;;29.60;99.90;;;;;;5030899;28;20380;-51
2022/07/23 10:28:55;;;;;;;4.32;3.00;;;29.60;99.90;;;;;;5030587;28;20041;-50
2022/07/23 10:31:34;;;;;;;4.45;2.58;;;29.60;99.90;;;;;;5030784;28;20029;-50
2022/07/23 10:34:14;;;;;;;3.03;2.47;;;29.60;99.90;;;;;;5030572;28;20032;-50
2022/07/23 10:36:45;;;;;;;3.47;2.65;;;29.60;99.90;;;;;;5030830;28;20052;-50
2022/07/23 10:39:15;;;;;;;8.93;3.50;;;29.60;99.90;;;;;;5030643;28;20040;-49
2022/07/23 10:41:42;;;;;;;6.30;2.97;;;29.70;99.90;;;;;;5030558;28;20030;-50
2022/07/23 10:44:11;;;;;;;3.67;2.70;;;29.60;99.90;;;;;;5030465;28;20469;-49
2022/07/23 10:49:34;;;;;;;3.92;2.78;;;29.70;99.90;;;;;;5034367;28;20033;-49
2022/07/23 10:52:22;;;;;;;8.05;3.25;;;29.70;99.90;;;;;;5034288;28;20029;-49
2022/07/23 10:54:52;;;;;;;5.28;3.85;;;29.70;99.90;;;;;;5034377;28;20037;-48
2022/07/23 10:57:47;;;;;;;5.13;2.88;;;29.70;99.90;;;;;;5034594;28;20079;-48
2022/07/23 11:00:16;;;;;;;9.20;3.40;;;29.70;99.90;;;;;;5034099;28;20038;-49
2022/07/23 11:02:45;;;;;;;6.10;3.08;;;29.80;99.90;;;;;;5034113;28;20433;-48
2022/07/23 11:05:17;;;;;;;4.57;3.10;;;29.80;99.90;;;;;;5033976;28;20030;-48
2022/07/23 11:08:04;;;;;;;5.65;3.15;;;29.80;99.90;;;;;;5033768;28;20037;-49
2022/07/23 11:10:51;;;;;;;4.80;2.90;;;29.80;99.90;;;;;;5033968;28;20038;-49
2022/07/23 11:13:26;;;;;;;3.70;3.10;;;29.80;99.90;;;;;;5033807;28;20033;-49
2022/07/23 11:16:10;;;;;;;5.07;2.70;;;29.80;99.90;;;;;;5034239;28;20037;-50
2022/07/23 11:18:48;;;;;;;9.88;3.20;;;29.90;99.90;;;;;;5033823;28;20026;-50
2022/07/23 11:21:36;;;;;;;4.22;2.90;;;29.90;99.90;;;;;;5033843;28;20036;-49
2022/07/23 11:24:06;;;;;;;5.78;3.25;;;29.90;99.90;;;;;;5031744;28;20040;-50
2022/07/23 11:26:44;;;;;;;4.50;3.65;;;29.90;99.90;;;;;;5033590;28;20029;-50
2022/07/23 11:29:26;;;;;;;5.57;3.67;;;30.00;99.90;;;;;;5033495;28;20137;-50
2022/07/23 11:31:56;;;;;;;7.07;3.53;;;30.00;99.90;;;;;;5033984;28;20021;-50
2022/07/23 11:34:34;;;;;;;4.18;3.28;;;30.00;99.90;;;;;;5033781;28;20029;-50
2022/07/23 11:37:00;;;;;;;;;;;30.00;99.90;;;;;;5034109;28;20056;-50
2022/07/23 11:39:28;;;;;;;3.72;2.80;;;30.00;99.90;;;;;;5033421;28;19909;-50
2022/07/23 11:41:54;;;;;;;3.42;3.00;;;30.10;99.90;;;;;;5033811;28;20104;-50
2022/07/23 11:44:34;;;;;;;4.40;3.00;;;30.00;99.90;;;;;;5033543;28;20025;-50
2022/07/23 11:47:23;;;;;;;3.55;3.05;;;30.00;99.90;;;;;;5033337;28;20025;-50
2022/07/23 11:49:59;;;;;;;4.88;3.08;;;30.00;99.90;;;;;;5033513;28;20112;-50
2022/07/23 11:52:26;;;;;;;6.10;3.50;;;30.10;99.90;;;;;;5033518;28;20022;-50
2022/07/23 11:55:04;;;;;;;3.08;2.78;;;30.10;99.90;;;;;;5033413;28;20018;-50
2022/07/23 11:57:33;;;;;;;5.00;3.00;;;30.10;99.90;;;;;;5031857;28;20064;-50
2022/07/23 12:00:12;;;;;;;5.97;2.75;;;30.20;99.90;;;;;;5033039;28;20041;-50
2022/07/23 12:02:44;;;;;;;5.95;3.20;;;30.10;99.90;;;;;;5032983;28;20473;-50
2022/07/23 12:05:19;;;;;;;3.40;2.97;;;30.20;99.90;;;;;;5031667;28;20030;-51
2022/07/23 12:07:49;;;;;;;5.53;3.42;;;30.20;99.90;;;;;;5032973;28;20112;-51
2022/07/23 12:10:27;;;;;;;7.70;3.83;;;30.20;99.90;;;;;;5032863;28;20052;-51
2022/07/23 12:12:58;;;;;;;5.25;2.50;;;30.20;99.90;;;;;;5033051;28;20037;-51
2022/07/23 12:15:37;;;;;;;6.03;3.08;;;30.20;99.90;;;;;;5033279;28;20361;-51
2022/07/23 12:18:04;;;;;;;4.38;3.03;;;30.20;99.90;;;;;;5032894;28;20464;-51
2022/07/23 12:20:36;;;;;;;6.05;3.05;;;30.20;99.90;;;;;;5032905;28;20056;-51
2022/07/23 12:23:05;;;;;;;5.35;3.28;;;30.20;99.90;;;;;;5032663;28;20034;-50
2022/07/23 12:25:33;;;;;;;6.95;3.03;;;30.20;99.90;;;;;;5032614;28;20032;-51
2022/07/23 12:28:13;;;;;;;4.78;2.88;;;30.30;99.90;;;;;;5032599;28;20031;-50
2022/07/23 12:30:51;;;;;;;4.05;2.67;;;30.30;99.90;;;;;;5032676;28;20033;-51
2022/07/23 12:33:29;;;;;;;5.65;2.95;;;30.30;99.90;;;;;;5032737;28;20025;-51
2022/07/23 12:35:57;;;;;;;3.75;2.53;;;30.30;99.90;;;;;;5032931;28;20021;-51
2022/07/23 12:38:26;;;;;;;6.82;3.10;;;30.30;99.90;;;;;;5032450;28;20026;-50
2022/07/23 12:40:53;;;;;;;8.40;3.10;;;30.30;99.90;;;;;;5032421;28;20033;-51
2022/07/23 12:43:25;;;;;;;5.93;3.40;;;30.30;99.90;;;;;;5032391;28;20113;-51
2022/07/23 12:46:04;;;;;;;7.85;3.15;;;30.30;99.90;;;;;;5032160;28;20099;-51
2022/07/23 12:48:36;;;;;;;5.95;3.85;;;30.30;99.90;;;;;;5030784;28;20061;-51
2022/07/23 12:51:04;;;;;;;6.18;3.55;;;30.30;99.90;;;;;;5032039;28;20428;-51
2022/07/23 12:53:49;;;;;;;4.65;3.22;;;30.40;99.90;;;;;;5032187;28;20037;-51
2022/07/23 12:56:20;;;;;;;4.07;3.53;;;30.50;99.90;;;;;;5032045;28;20445;-50
2022/07/23 12:58:57;;;;;;;5.07;3.78;;;30.50;99.90;;;;;;5031965;28;20108;-51